Time;durP1;ratioP1;P1;durP2;ratioP2;P2;SDS_P1;SDS_P2;PMS_P1;PMS_P2;Temp;Humidity;BMP_temperature;BMP_pressure;BME280_temperature;BME280_humidity;BME280_pressure;Samples;Min_cycle;Max_cycle;Signal;HPM_P1;HPM_P2
2023/04/03 00:01:02;;;;;;;1.83;1.70;;;6.40;99.90;;;6.27;nan;101659.03;4995051;28;20207;-66
2023/04/03 00:03:28;;;;;;;1.50;1.50;;;6.30;99.90;;;6.25;nan;101659.13;4992512;28;21163;-65
2023/04/03 00:05:55;;;;;;;1.83;1.73;;;6.30;99.90;;;6.11;nan;101658.75;4994695;28;20638;-65
2023/04/03 00:08:22;;;;;;;1.97;1.40;;;6.30;99.90;;;6.02;nan;101656.53;4986735;28;20630;-64
2023/04/03 00:10:50;;;;;;;1.95;1.85;;;6.30;99.90;;;6.01;nan;101654.84;4993335;28;20672;-65
2023/04/03 00:13:17;;;;;;;2.30;2.20;;;6.30;99.90;;;6.01;nan;101662.59;4992828;28;20217;-65
2023/04/03 00:15:44;;;;;;;2.40;2.30;;;6.30;99.90;;;5.96;nan;101654.16;4993491;28;20642;-65
2023/04/03 00:18:12;;;;;;;2.40;2.30;;;6.30;99.90;;;5.94;nan;101653.34;4988099;28;21899;-64
2023/04/03 00:20:39;;;;;;;2.55;2.20;;;6.30;99.90;;;5.92;nan;101665.53;4982028;28;21186;-65
2023/04/03 00:23:06;;;;;;;3.00;2.70;;;6.20;99.90;;;5.89;nan;101657.88;4973440;28;20224;-65
2023/04/03 00:25:33;;;;;;;2.63;2.43;;;6.20;99.90;;;5.90;nan;101662.16;4992744;28;20692;-66
2023/04/03 00:28:04;;;;;;;3.20;2.77;;;6.20;99.90;;;5.89;nan;101667.41;5007936;28;20638;-65
2023/04/03 00:30:31;;;;;;;2.00;1.60;;;6.20;99.90;;;5.85;nan;101673.59;4992979;28;21002;-65
2023/04/03 00:32:59;;;;;;;2.50;2.30;;;6.10;99.90;;;5.82;nan;101668.47;4992725;28;21299;-65
2023/04/03 00:35:27;;;;;;;2.20;2.10;;;6.10;99.90;;;5.77;nan;101665.22;4992036;28;20227;-64
2023/04/03 00:37:55;;;;;;;2.03;1.87;;;6.00;99.90;;;5.77;nan;101670.41;4987314;28;20631;-65
2023/04/03 00:40:26;;;;;;;1.63;1.63;;;6.00;99.90;;;5.72;nan;101674.88;4990287;28;20642;-65
2023/04/03 00:42:58;;;;;;;2.05;1.95;;;6.00;99.90;;;5.68;nan;101673.31;4991745;28;21034;-64
2023/04/03 00:45:36;;;;;;;2.10;2.00;;;5.90;99.90;;;5.65;nan;101668.22;4991745;28;20721;-62
2023/04/03 00:48:07;;;;;;;1.77;1.63;;;5.90;99.90;;;5.62;nan;101676.13;4991636;28;20211;-64
2023/04/03 00:50:37;;;;;;;1.67;1.67;;;5.90;99.90;;;5.58;nan;101677.94;5007106;28;20640;-66
2023/04/03 00:53:08;;;;;;;2.58;1.98;;;5.80;99.90;;;5.56;nan;101668.56;4974771;28;20216;-64
2023/04/03 00:55:38;;;;;;;1.95;1.85;;;5.80;99.90;;;5.51;nan;101669.53;4987010;28;20227;-65
2023/04/03 00:58:09;;;;;;;2.58;2.47;;;5.80;99.90;;;5.44;nan;101672.41;4991029;28;20261;-65
2023/04/03 01:00:40;;;;;;;2.03;1.92;;;5.70;99.90;;;5.40;nan;101666.50;4989972;28;20270;-64
2023/04/03 01:03:07;;;;;;;2.67;2.58;;;5.70;99.90;;;5.37;nan;101663.16;4991013;28;20227;-66
2023/04/03 01:05:35;;;;;;;3.13;2.30;;;5.60;99.90;;;5.35;nan;101667.53;4987376;28;20215;-65
2023/04/03 01:08:02;;;;;;;2.60;2.50;;;5.60;99.90;;;5.32;nan;101659.91;4989410;28;20642;-64
2023/04/03 01:10:29;;;;;;;2.42;2.33;;;5.60;99.90;;;5.31;nan;101658.19;4982919;28;20204;-65
2023/04/03 01:12:56;;;;;;;2.80;2.60;;;5.60;99.90;;;5.29;nan;101657.41;4983794;28;20254;-66
2023/04/03 01:15:28;;;;;;;2.60;2.50;;;5.50;99.90;;;5.31;nan;101658.19;4981620;28;20233;-65
2023/04/03 01:17:57;;;;;;;2.65;2.55;;;5.60;99.90;;;5.30;nan;101661.69;4991723;28;20211;-64
2023/04/03 01:20:36;;;;;;;2.60;2.50;;;5.60;99.90;;;5.28;nan;101661.72;4987256;28;20208;-66
2023/04/03 01:23:11;;;;;;;3.30;3.00;;;5.60;99.90;;;5.23;nan;101662.78;4984652;28;20215;-64
2023/04/03 01:25:51;;;;;;;3.35;3.05;;;5.50;99.90;;;5.18;nan;101654.31;4977605;28;20224;-65
2023/04/03 01:28:24;;;;;;;2.25;2.15;;;5.50;99.90;;;5.13;nan;101666.59;4984112;28;20214;-66
2023/04/03 01:31:19;;;;;;;2.70;2.60;;;5.40;99.90;;;5.11;nan;101658.84;4989274;28;20222;-64
2023/04/03 01:33:46;;;;;;;2.15;2.05;;;5.40;99.90;;;5.08;nan;101664.16;4981512;28;20206;-64
2023/04/03 01:36:19;;;;;;;3.13;2.90;;;5.40;99.90;;;5.06;nan;101668.53;5013913;23;20704;-67
2023/04/03 01:38:46;;;;;;;2.67;2.55;;;5.30;99.90;;;4.98;nan;101670.53;5011166;28;20256;-67
2023/04/03 01:41:13;;;;;;;2.97;2.63;;;5.30;99.90;;;4.94;nan;101668.09;5009508;28;20570;-66
2023/04/03 01:43:40;;;;;;;2.90;2.67;;;5.20;99.90;;;4.92;nan;101675.06;5011678;28;20226;-66
2023/04/03 01:46:07;;;;;;;3.10;2.90;;;5.20;99.90;;;4.87;nan;101670.03;4998057;28;20223;-66
2023/04/03 01:48:34;;;;;;;2.30;2.20;;;5.20;99.90;;;4.91;nan;101673.34;5010617;28;20206;-66
2023/04/03 01:51:01;;;;;;;2.60;2.50;;;5.20;99.90;;;4.87;nan;101666.59;5010130;28;20202;-66
2023/04/03 01:53:28;;;;;;;2.45;2.25;;;5.10;99.90;;;4.80;nan;101668.53;5012477;28;20206;-66
2023/04/03 01:55:55;;;;;;;3.40;2.40;;;5.10;99.90;;;4.77;nan;101672.94;5010954;28;20751;-66
2023/04/03 01:58:22;;;;;;;2.72;2.63;;;5.00;99.90;;;4.75;nan;101674.75;5005541;28;20214;-66
2023/04/03 02:00:49;;;;;;;2.40;2.30;;;5.00;99.90;;;4.70;nan;101673.16;5009656;28;20203;-66
2023/04/03 02:03:16;;;;;;;2.80;2.60;;;5.00;99.90;;;4.69;nan;101666.28;5009109;28;20234;-66
2023/04/03 02:05:43;;;;;;;2.83;2.63;;;5.00;99.90;;;4.65;nan;101669.84;5010450;28;20789;-68
2023/04/03 02:08:11;;;;;;;2.90;2.70;;;4.90;99.90;;;4.63;nan;101668.19;5011769;28;20211;-66
2023/04/03 02:10:37;;;;;;;2.55;2.45;;;4.90;99.90;;;4.61;nan;101673.44;5009948;28;20203;-67
2023/04/03 02:13:05;;;;;;;3.10;2.85;;;4.80;99.90;;;4.62;nan;101669.94;5011147;28;20206;-66
2023/04/03 02:15:32;;;;;;;3.10;2.90;;;4.90;99.90;;;4.59;nan;101666.59;5009500;28;20206;-66
2023/04/03 02:17:59;;;;;;;2.55;2.45;;;4.90;99.90;;;4.56;nan;101664.97;5010697;28;20210;-66
2023/04/03 02:20:27;;;;;;;3.03;2.83;;;4.80;99.90;;;4.57;nan;101671.84;5010137;28;20221;-67
2023/04/03 02:22:54;;;;;;;2.47;2.38;;;4.90;99.90;;;4.59;nan;101671.78;5011106;28;20281;-67
2023/04/03 02:25:21;;;;;;;2.60;2.47;;;4.90;99.90;;;4.56;nan;101674.44;5010038;28;20679;-67
2023/04/03 02:27:48;;;;;;;2.55;2.45;;;4.90;99.90;;;4.52;nan;101662.50;5010861;28;20589;-68
2023/04/03 02:30:15;;;;;;;2.45;2.25;;;4.80;99.90;;;4.48;nan;101660.91;5010000;28;20602;-67
2023/04/03 02:32:43;;;;;;;2.63;2.42;;;4.80;99.90;;;4.47;nan;101669.56;5010899;28;20229;-67
2023/04/03 02:35:11;;;;;;;2.80;2.60;;;4.80;99.90;;;4.48;nan;101666.09;5009343;28;20783;-65
2023/04/03 02:37:39;;;;;;;1.85;1.75;;;4.80;99.90;;;4.51;nan;101671.19;5009093;28;20240;-67
2023/04/03 02:40:08;;;;;;;3.75;2.40;;;4.80;99.90;;;4.48;nan;101661.78;5009336;28;20611;-66
2023/04/03 02:42:35;;;;;;;2.65;2.50;;;4.80;99.90;;;4.50;nan;101665.16;5009909;28;20656;-66
2023/04/03 02:45:02;;;;;;;1.65;1.65;;;4.80;99.90;;;4.48;nan;101661.78;5011000;28;20216;-66
2023/04/03 02:47:29;;;;;;;2.95;2.42;;;4.80;99.90;;;4.47;nan;101664.41;5008697;28;20222;-67
2023/04/03 02:49:56;;;;;;;1.50;1.50;;;4.80;99.90;;;4.49;nan;101666.03;5010435;28;20673;-66
2023/04/03 02:52:23;;;;;;;2.50;2.05;;;4.80;99.90;;;4.51;nan;101658.25;5009977;28;20207;-67
2023/04/03 02:54:50;;;;;;;3.25;2.38;;;4.80;99.90;;;4.52;nan;101658.19;5010291;28;20206;-66
2023/04/03 02:57:17;;;;;;;2.17;1.80;;;4.80;99.90;;;4.56;nan;101658.94;5009213;28;20222;-67
2023/04/03 02:59:44;;;;;;;2.42;2.33;;;4.80;99.90;;;4.55;nan;101665.00;5008426;28;20606;-67
2023/04/03 03:02:11;;;;;;;2.20;2.10;;;4.80;99.90;;;4.54;nan;101656.41;5009100;28;20218;-66
2023/04/03 03:04:38;;;;;;;1.88;1.80;;;4.80;99.90;;;4.55;nan;101660.69;5009790;28;20230;-66
2023/04/03 03:07:05;;;;;;;4.28;1.83;;;4.90;99.90;;;4.56;nan;101659.78;5008884;28;20227;-67
2023/04/03 03:09:32;;;;;;;2.00;1.90;;;4.90;99.90;;;4.55;nan;101652.09;5010267;28;20217;-66
2023/04/03 03:11:59;;;;;;;2.00;1.90;;;4.90;99.90;;;4.54;nan;101656.41;5011115;28;20207;-67
2023/04/03 03:14:26;;;;;;;2.45;2.25;;;4.90;99.90;;;4.55;nan;101652.94;5014962;28;20211;-66
2023/04/03 03:16:53;;;;;;;1.80;1.70;;;4.90;99.90;;;4.54;nan;101664.16;5013067;28;20222;-67
2023/04/03 03:19:20;;;;;;;2.30;2.10;;;4.80;99.90;;;4.56;nan;101664.09;5014060;28;20207;-67
2023/04/03 03:21:47;;;;;;;2.63;2.53;;;4.80;99.90;;;4.53;nan;101667.66;5011465;28;20590;-66
2023/04/03 03:24:15;;;;;;;2.20;2.10;;;4.80;99.90;;;4.55;nan;101675.34;5013347;28;20226;-67
2023/04/03 03:26:42;;;;;;;2.13;2.03;;;4.90;99.90;;;4.52;nan;101667.69;5013751;28;20252;-66
2023/04/03 03:29:09;;;;;;;1.90;1.80;;;4.80;99.90;;;4.50;nan;101674.63;5013877;28;20206;-66
2023/04/03 03:31:36;;;;;;;1.80;1.70;;;4.80;99.90;;;4.47;nan;101679.91;5013443;28;20672;-66
2023/04/03 03:34:03;;;;;;;1.95;1.85;;;4.80;99.90;;;4.45;nan;101679.94;5014101;28;20233;-67
2023/04/03 03:36:31;;;;;;;3.00;2.53;;;4.70;99.90;;;4.48;nan;101677.28;5012027;28;20261;-66
2023/04/03 03:38:58;;;;;;;1.75;1.67;;;4.80;99.90;;;4.46;nan;101676.47;5013082;28;20656;-66
2023/04/03 03:41:25;;;;;;;3.25;1.70;;;4.80;99.90;;;4.63;nan;101686.28;5012976;28;20229;-66
2023/04/03 03:43:52;;;;;;;2.75;2.10;;;4.70;99.90;;;4.64;nan;101683.66;5013326;28;20223;-67
2023/04/03 03:46:19;;;;;;;2.15;2.05;;;4.80;99.90;;;4.64;nan;101683.66;5011349;28;20232;-66
2023/04/03 03:48:46;;;;;;;2.08;1.90;;;4.70;99.90;;;4.65;nan;101681.91;5013403;28;20206;-66
2023/04/03 03:51:12;;;;;;;2.33;2.22;;;4.70;99.90;;;4.62;nan;101685.44;5012201;28;20203;-66
2023/04/03 03:53:40;;;;;;;4.32;2.42;;;4.70;99.90;;;4.61;nan;101682.91;5012711;28;20269;-67
2023/04/03 03:56:07;;;;;;;2.25;2.15;;;4.70;99.90;;;4.61;nan;101688.09;5012496;28;20242;-66
2023/04/03 03:58:34;;;;;;;1.60;1.60;;;4.70;99.90;;;4.58;nan;101683.84;5013324;28;20428;-67
2023/04/03 04:01:06;;;;;;;2.40;1.80;;;4.70;99.90;;;4.55;nan;101678.78;5012675;28;20217;-66
2023/04/03 04:03:33;;;;;;;1.98;1.88;;;4.70;99.90;;;4.53;nan;101680.59;5013440;28;20734;-66
2023/04/03 04:06:00;;;;;;;2.20;2.10;;;4.60;99.90;;;4.53;nan;101680.59;5012394;28;20222;-66
2023/04/03 04:08:27;;;;;;;2.00;1.90;;;4.70;99.90;;;4.54;nan;101678.81;5028738;28;20233;-66
2023/04/03 04:10:54;;;;;;;1.70;1.60;;;4.60;99.90;;;4.51;nan;101681.50;5012399;28;20199;-66
2023/04/03 04:13:21;;;;;;;2.08;1.98;;;4.60;99.90;;;4.46;nan;101673.88;5013257;28;20589;-67
2023/04/03 04:15:48;;;;;;;2.00;1.90;;;4.60;99.90;;;4.44;nan;101675.69;5012257;28;20248;-67
2023/04/03 04:18:15;;;;;;;2.10;2.00;;;4.60;99.90;;;4.45;nan;101671.38;5008890;28;20276;-66
2023/04/03 04:20:45;;;;;;;2.30;2.13;;;4.60;99.90;;;4.45;nan;101672.19;5013181;28;20260;-67
2023/04/03 04:23:11;;;;;;;2.13;2.03;;;4.60;99.90;;;4.44;nan;101674.81;5012242;28;20218;-66
2023/04/03 04:25:38;;;;;;;2.00;1.90;;;4.60;99.90;;;4.43;nan;101678.31;5012078;28;20230;-66
2023/04/03 04:28:06;;;;;;;2.60;1.85;;;4.50;99.90;;;4.40;nan;101679.25;5012069;28;20209;-67
2023/04/03 04:30:33;;;;;;;1.50;1.50;;;4.50;99.90;;;4.40;nan;101675.81;5013649;28;20207;-66
2023/04/03 04:33:01;;;;;;;2.70;2.50;;;4.50;99.90;;;4.36;nan;101669.91;5012383;28;20209;-66
2023/04/03 04:35:28;;;;;;;2.38;2.28;;;4.50;99.90;;;4.35;nan;101670.78;5012341;28;20719;-66
2023/04/03 04:37:55;;;;;;;1.90;1.80;;;4.50;99.90;;;4.34;nan;101676.00;5011870;28;20206;-66
2023/04/03 04:40:22;;;;;;;1.90;1.90;;;4.40;99.90;;;4.30;nan;101672.63;5011312;28;20280;-66
2023/04/03 04:42:49;;;;;;;2.38;2.20;;;4.40;99.90;;;4.26;nan;101675.38;5012803;28;20206;-66
2023/04/03 04:45:16;;;;;;;2.17;2.08;;;4.40;99.90;;;4.25;nan;101673.69;5011214;28;20199;-67
2023/04/03 04:47:44;;;;;;;1.90;1.80;;;4.40;99.90;;;4.27;nan;101674.47;5012181;28;20738;-66
2023/04/03 04:50:11;;;;;;;2.58;1.85;;;4.40;99.90;;;4.28;nan;101674.44;5011391;28;20207;-67
2023/04/03 04:52:38;;;;;;;1.85;1.75;;;4.40;99.90;;;4.27;nan;101682.22;5012536;28;20202;-67
2023/04/03 04:55:06;;;;;;;2.65;1.98;;;4.40;99.90;;;4.28;nan;101683.94;5011391;28;20452;-63
2023/04/03 04:57:33;;;;;;;1.88;1.77;;;4.40;99.90;;;4.30;nan;101682.97;5009819;28;20229;-66
2023/04/03 05:00:00;;;;;;;2.08;1.98;;;4.40;99.90;;;4.32;nan;101686.34;5010163;28;20214;-66
2023/04/03 05:02:27;;;;;;;2.25;2.15;;;4.40;99.90;;;4.32;nan;101686.34;5005889;28;20478;-66
2023/04/03 05:04:54;;;;;;;2.17;2.05;;;4.40;99.90;;;4.36;nan;101685.41;5008760;28;20222;-66
2023/04/03 05:07:21;;;;;;;2.13;1.95;;;4.50;99.90;;;4.38;nan;101686.19;5011213;28;20609;-66
2023/04/03 05:09:48;;;;;;;2.47;2.28;;;4.50;99.90;;;4.38;nan;101693.09;5011527;28;20672;-67
2023/04/03 05:12:16;;;;;;;2.00;1.90;;;4.50;99.90;;;4.21;nan;101693.59;5012447;28;20211;-66
2023/04/03 05:14:43;;;;;;;1.70;1.70;;;4.50;99.90;;;4.15;nan;101704.13;5011442;28;20664;-66
2023/04/03 05:17:10;;;;;;;2.22;2.13;;;4.40;99.90;;;4.16;nan;101695.47;5011491;28;20237;-67
2023/04/03 05:19:36;;;;;;;2.40;2.20;;;4.50;99.90;;;4.23;nan;101703.88;5010412;28;20202;-66
2023/04/03 05:22:03;;;;;;;2.00;1.90;;;4.50;99.90;;;4.42;nan;101695.56;5011553;28;20202;-66
2023/04/03 05:24:30;;;;;;;2.40;2.20;;;4.70;99.90;;;4.65;nan;101700.88;5011200;28;20237;-66
2023/04/03 05:26:57;;;;;;;2.00;1.90;;;4.90;99.90;;;4.91;nan;101696.63;5011183;28;20227;-66
2023/04/03 05:29:24;;;;;;;2.53;2.33;;;5.10;99.90;;;5.17;nan;101700.06;5011949;28;20260;-66
2023/04/03 05:31:51;;;;;;;2.30;2.10;;;5.40;99.90;;;5.46;nan;101699.09;5008046;28;20260;-66
2023/04/03 05:34:19;;;;;;;2.70;2.50;;;5.70;99.90;;;5.80;nan;101706.53;5011277;28;20214;-67
2023/04/03 05:36:46;;;;;;;1.83;1.73;;;6.00;99.90;;;6.12;nan;101711.44;5010394;28;20264;-67
2023/04/03 05:39:13;;;;;;;2.55;2.28;;;6.30;99.90;;;6.43;nan;101708.56;5010681;28;20230;-67
2023/04/03 05:41:40;;;;;;;2.27;2.17;;;6.60;99.90;;;6.73;nan;101707.41;5011028;28;20624;-67
2023/04/03 05:44:07;;;;;;;2.20;2.00;;;6.90;99.90;;;7.02;nan;101709.69;5011512;28;20665;-67
2023/04/03 05:46:34;;;;;;;2.23;2.13;;;7.20;99.90;;;7.38;nan;101708.19;5008881;28;20664;-66
2023/04/03 05:49:00;;;;;;;2.00;1.90;;;7.60;99.90;;;7.73;nan;101710.09;5010849;28;21012;-67
2023/04/03 05:51:33;;;;;;;2.40;2.20;;;7.90;99.90;;;8.03;nan;101717.50;5010547;28;21283;-67
2023/04/03 05:54:19;;;;;;;2.53;2.00;;;8.20;99.90;;;8.38;nan;101724.56;5025976;28;21191;-67
2023/04/03 05:56:46;;;;;;;1.50;1.50;;;8.60;99.90;;;8.68;nan;101717.13;5024480;28;20665;-66
2023/04/03 05:59:13;;;;;;;2.30;2.10;;;8.90;99.90;;;9.06;nan;101718.72;5009035;28;20633;-67
2023/04/03 06:01:40;;;;;;;2.00;1.90;;;9.20;99.90;;;9.52;nan;101714.72;5008613;28;20638;-67
2023/04/03 06:04:10;;;;;;;2.20;2.10;;;9.70;99.90;;;9.86;nan;101715.50;5010170;28;20657;-67
2023/04/03 06:06:46;;;;;;;1.93;1.83;;;10.00;99.90;;;10.20;nan;101719.81;5009444;28;20668;-64
2023/04/03 06:09:14;;;;;;;1.57;1.47;;;10.30;99.90;;;10.57;nan;101721.28;4991027;28;20634;-67
2023/04/03 06:11:41;;;;;;;1.80;1.70;;;10.70;99.90;;;10.96;nan;101723.47;4990558;28;20661;-67
2023/04/03 06:14:09;;;;;;;1.67;1.57;;;11.10;99.90;;;11.25;nan;101720.03;5010784;28;20640;-67
2023/04/03 06:16:38;;;;;;;2.23;2.03;;;11.50;99.90;;;11.55;nan;101729.56;5010442;28;20642;-67
2023/04/03 06:19:07;;;;;;;2.53;2.33;;;11.80;99.90;;;12.06;nan;101730.88;5010299;28;21214;-67
2023/04/03 06:21:36;;;;;;;1.80;1.80;;;12.30;99.90;;;12.42;nan;101731.22;5009775;28;20641;-67
2023/04/03 06:24:05;;;;;;;2.20;2.10;;;12.60;99.00;;;12.67;nan;101722.66;5005735;28;20666;-67
2023/04/03 06:26:33;;;;;;;2.10;2.00;;;12.90;98.10;;;13.32;nan;101721.06;4991218;28;21239;-67
2023/04/03 06:29:01;;;;;;;2.27;2.17;;;13.50;97.10;;;13.95;nan;101732.47;5000655;28;20728;-67
2023/04/03 06:31:29;;;;;;;3.50;3.20;;;14.20;95.40;;;14.48;nan;101727.94;5009683;28;20982;-67
2023/04/03 06:33:56;;;;;;;3.23;2.43;;;14.80;94.00;;;14.82;nan;101735.09;5009489;28;21262;-67
2023/04/03 06:36:23;;;;;;;3.57;2.77;;;15.20;92.50;;;14.71;nan;101740.25;5009878;28;20669;-67
2023/04/03 06:38:50;;;;;;;3.23;2.50;;;15.30;91.20;;;14.71;nan;101732.38;5008724;28;20645;-67
2023/04/03 06:41:17;;;;;;;2.13;1.93;;;15.30;91.00;;;15.19;nan;101741.94;5009281;28;21086;-67
2023/04/03 06:43:44;;;;;;;2.20;2.10;;;15.70;90.10;;;15.48;nan;101740.63;5008354;28;20671;-67
2023/04/03 06:46:21;;;;;;;2.17;2.07;;;16.10;88.00;;;15.57;nan;101738.28;5011709;28;20645;-67
2023/04/03 06:48:49;;;;;;;2.60;2.13;;;16.20;86.20;;;15.95;nan;101734.41;5026693;28;20629;-64
2023/04/03 06:51:27;;;;;;;4.53;2.10;;;16.40;85.30;;;16.03;nan;101747.84;5011804;28;20633;-67
2023/04/03 06:53:58;;;;;;;4.00;2.97;;;16.60;83.10;;;15.81;nan;101736.41;5013324;28;20635;-66
2023/04/03 06:56:26;;;;;;;2.60;2.40;;;16.50;82.70;;;16.19;nan;101748.31;5012784;28;20661;-66
2023/04/03 06:58:56;;;;;;;2.00;1.80;;;16.70;82.30;;;15.63;nan;101748.34;5012652;28;20695;-67
2023/04/03 07:01:27;;;;;;;2.33;2.23;;;16.50;80.90;;;15.86;nan;101743.03;5008287;28;20622;-66
2023/04/03 07:03:55;;;;;;;2.50;2.40;;;16.10;81.70;;;15.90;nan;101743.63;5014417;28;20653;-67
2023/04/03 07:06:23;;;;;;;2.43;2.23;;;16.20;81.40;;;16.25;nan;101757.50;5013057;28;21016;-67
2023/04/03 07:08:50;;;;;;;1.43;0.97;;;16.40;81.80;;;16.39;nan;101759.09;5013593;28;21256;-67
2023/04/03 07:11:17;;;;;;;3.70;2.03;;;16.70;79.20;;;16.18;nan;101764.25;5012782;28;20690;-66
2023/04/03 07:13:44;;;;;;;4.93;1.77;;;16.60;80.00;;;16.42;nan;101759.66;5013510;28;20633;-67
2023/04/03 07:16:11;;;;;;;4.40;2.57;;;16.80;80.10;;;16.70;nan;101767.09;5012388;28;21026;-65
2023/04/03 07:18:38;;;;;;;2.27;2.17;;;17.10;79.20;;;17.11;nan;101773.50;5011964;28;21046;-66
2023/04/03 07:21:05;;;;;;;2.30;2.20;;;17.40;77.70;;;17.58;nan;101768.66;5013471;28;20629;-67
2023/04/03 07:23:32;;;;;;;2.87;2.20;;;17.80;76.20;;;17.54;nan;101772.53;5014825;28;20612;-68
2023/04/03 07:25:59;;;;;;;2.03;1.93;;;17.80;75.10;;;17.42;nan;101788.50;5011723;28;20667;-68
2023/04/03 07:28:27;;;;;;;2.40;2.20;;;17.70;73.90;;;17.34;nan;101780.34;4993460;28;20618;-67
2023/04/03 07:31:08;;;;;;;2.93;2.20;;;17.70;74.80;;;17.58;nan;101786.28;5020001;28;21266;-67
2023/04/03 07:33:35;;;;;;;1.60;1.50;;;18.00;73.20;;;16.82;nan;101774.03;5010447;28;20691;-67
2023/04/03 07:36:03;;;;;;;4.57;2.33;;;17.40;73.30;;;16.88;nan;101781.47;5038745;23;20634;-64
2023/04/03 07:38:30;;;;;;;1.70;1.57;;;17.30;74.30;;;17.35;nan;101777.63;5001247;28;20650;-64
2023/04/03 07:40:57;;;;;;;2.53;2.37;;;17.60;74.30;;;16.39;nan;101775.75;4993231;28;20626;-63
2023/04/03 07:43:25;;;;;;;2.20;2.10;;;17.00;73.90;;;15.28;nan;101780.72;5013499;28;20628;-64
2023/04/03 07:45:53;;;;;;;1.53;1.43;;;15.90;75.70;;;14.12;nan;101781.16;4995512;28;20744;-66
2023/04/03 07:48:23;;;;;;;2.50;2.30;;;14.90;77.60;;;13.97;nan;101783.06;5012327;28;21182;-66
2023/04/03 07:50:51;;;;;;;3.40;0.70;;;14.50;79.50;;;13.83;nan;101791.03;5004802;28;20639;-66
2023/04/03 07:53:18;;;;;;;4.60;2.50;;;14.40;80.50;;;13.69;nan;101772.72;5007162;28;21087;-64
2023/04/03 07:55:51;;;;;;;2.63;2.37;;;14.10;82.40;;;14.32;nan;101777.19;4993146;28;20614;-63
2023/04/03 07:58:18;;;;;;;2.93;1.93;;;14.50;81.90;;;14.97;nan;101780.44;5000048;28;20635;-64
2023/04/03 08:00:47;;;;;;;2.70;2.50;;;15.20;79.90;;;15.27;nan;101783.44;4991507;28;21211;-65
2023/04/03 08:03:16;;;;;;;2.33;2.10;;;15.70;78.60;;;15.46;nan;101774.13;4999552;28;20644;-64
2023/04/03 08:05:46;;;;;;;2.07;1.97;;;16.20;76.40;;;16.24;nan;101792.72;5004423;28;21284;-61
2023/04/03 08:08:17;;;;;;;2.40;2.20;;;16.90;74.90;;;16.66;nan;101789.41;5025252;28;20649;-65
2023/04/03 08:10:52;;;;;;;2.87;1.80;;;17.50;73.70;;;17.21;nan;101800.78;5012285;28;20617;-63
2023/04/03 08:13:22;;;;;;;2.40;2.07;;;18.00;69.40;;;18.10;nan;101780.09;5012898;28;20709;-64
2023/04/03 08:15:49;;;;;;;1.67;1.57;;;18.90;68.30;;;19.16;nan;101788.28;5002043;28;21070;-64
2023/04/03 08:18:16;;;;;;;0.90;0.90;;;20.00;65.30;;;18.52;nan;101805.50;4993590;28;20642;-64
2023/04/03 08:20:44;;;;;;;1.90;1.70;;;19.90;59.70;;;18.52;nan;101787.84;4991895;28;21060;-64
2023/04/03 08:23:11;;;;;;;1.90;1.20;;;19.60;60.10;;;19.23;nan;101793.81;5006157;28;20634;-63
2023/04/03 08:25:40;;;;;;;2.23;1.30;;;20.20;59.00;;;19.29;nan;101798.59;5012817;28;20988;-65
2023/04/03 08:28:09;;;;;;;1.33;1.33;;;20.70;55.90;;;17.91;nan;101791.38;5011402;28;20625;-63
2023/04/03 08:30:38;;;;;;;2.60;1.27;;;19.30;57.00;;;17.63;nan;101789.41;5002644;28;21000;-65
2023/04/03 08:33:05;;;;;;;1.03;1.00;;;18.60;57.40;;;18.31;nan;101794.13;5009175;28;20640;-65
2023/04/03 08:35:32;;;;;;;1.47;1.40;;;19.00;58.60;;;19.24;nan;101785.78;4993020;28;20622;-64
2023/04/03 08:38:01;;;;;;;1.63;1.53;;;20.00;56.50;;;19.76;nan;101796.94;5003839;28;20680;-67
2023/04/03 08:40:28;;;;;;;3.03;1.70;;;20.90;54.80;;;20.53;nan;101809.00;5012493;28;20590;-66
2023/04/03 08:43:24;;;;;;;1.53;1.30;;;21.50;53.70;;;21.21;nan;101799.72;5010954;28;20633;-65
2023/04/03 08:45:53;;;;;;;1.90;0.90;;;;;;;21.72;nan;101817.63;4972362;28;21083;-66
2023/04/03 08:48:27;;;;;;;0.50;0.50;;;23.20;50.20;;;21.82;nan;101790.97;5010770;28;20630;-65
2023/04/03 08:51:00;;;;;;;1.30;1.30;;;23.20;50.20;;;22.29;nan;101790.47;5012294;28;20602;-66
2023/04/03 08:53:34;;;;;;;2.20;1.70;;;23.30;49.80;;;22.71;nan;101793.19;5011919;28;20625;-65
2023/04/03 08:56:07;;;;;;;1.80;1.70;;;23.70;49.30;;;23.48;nan;101802.69;5010792;28;20722;-66
2023/04/03 08:59:05;;;;;;;1.60;1.50;;;24.40;47.90;;;24.73;nan;101799.28;4991284;28;20634;-67
2023/04/03 09:01:39;;;;;;;1.43;1.37;;;25.50;46.80;;;23.57;nan;101815.88;4986315;28;20660;-65
2023/04/03 09:04:15;;;;;;;1.90;1.47;;;25.60;44.80;;;23.83;nan;101792.50;4995128;28;20634;-65
2023/04/03 09:06:53;;;;;;;1.63;1.53;;;24.80;45.10;;;22.66;nan;101790.16;5006035;28;21095;-65
2023/04/03 09:09:40;;;;;;;1.40;1.30;;;24.00;45.60;;;21.44;nan;101806.28;4991887;28;20610;-65
2023/04/03 09:12:15;;;;;;;1.17;1.07;;;22.70;45.90;;;19.21;nan;101785.19;5018051;28;21267;-65
2023/04/03 09:14:48;;;;;;;1.37;1.27;;;20.40;47.40;;;20.39;nan;101783.00;5011261;28;20629;-66
2023/04/03 09:17:55;;;;;;;2.10;1.80;;;20.70;48.70;;;19.05;nan;101785.75;4995944;28;20736;-65
2023/04/03 09:20:53;;;;;;;1.97;1.87;;;20.60;48.10;;;14.80;nan;101779.00;4992842;28;20634;-65
2023/04/03 09:23:32;;;;;;;1.07;1.00;;;17.10;51.70;;;13.63;nan;101774.94;4991395;28;20622;-65
2023/04/03 09:26:21;;;;;;;0.40;0.40;;;14.60;61.00;;;13.77;nan;101788.81;4998796;28;20671;-66
2023/04/03 09:28:48;;;;;;;2.73;0.60;;;14.30;62.50;;;14.34;nan;101780.56;4984997;28;20626;-65
2023/04/03 09:31:27;;;;;;;2.40;0.90;;;14.80;61.60;;;15.31;nan;101779.66;4991938;28;20653;-65
2023/04/03 09:34:03;;;;;;;1.30;1.23;;;15.60;61.60;;;17.49;nan;101793.13;5010087;28;21284;-64
2023/04/03 09:36:45;;;;;;;1.80;1.37;;;17.50;59.20;;;19.85;nan;101777.53;4990052;28;20672;-65
2023/04/03 09:39:24;;;;;;;2.13;1.23;;;20.00;49.80;;;21.24;nan;101788.81;4998872;28;21214;-65
2023/04/03 09:42:01;;;;;;;1.47;1.30;;;21.70;47.60;;;20.75;nan;101778.63;5011734;28;21186;-65
2023/04/03 09:44:37;;;;;;;1.77;1.30;;;21.60;46.60;;;21.48;nan;101775.75;5009601;28;20633;-66
2023/04/03 09:47:33;;;;;;;2.50;1.40;;;21.90;46.60;;;23.17;nan;101766.00;5010597;28;20671;-66
2023/04/03 09:50:16;;;;;;;5.70;1.57;;;23.70;45.00;;;24.17;nan;101778.97;4999560;28;21101;-65
2023/04/03 09:52:51;;;;;;;1.30;1.20;;;25.00;43.00;;;24.93;nan;101805.06;4988490;28;20631;-66
2023/04/03 09:55:28;;;;;;;1.27;1.00;;;25.80;42.40;;;23.15;nan;101772.47;4990507;28;20684;-67
2023/04/03 09:58:07;;;;;;;3.63;1.10;;;24.80;43.00;;;23.46;nan;101778.03;5006835;28;20657;-65
2023/04/03 10:00:38;;;;;;;1.90;1.30;;;24.30;43.30;;;22.05;nan;101789.47;4989828;28;20634;-66
2023/04/03 10:03:24;;;;;;;1.57;1.47;;;23.20;43.80;;;22.03;nan;101770.19;4990683;28;21160;-65
2023/04/03 10:05:54;;;;;;;0.90;0.90;;;22.90;43.50;;;23.03;nan;101782.63;5006863;28;21305;-64
2023/04/03 10:08:27;;;;;;;1.30;1.30;;;23.70;43.40;;;22.70;nan;101756.91;5001151;28;20625;-65
2023/04/03 10:11:18;;;;;;;1.83;1.30;;;23.50;43.00;;;23.25;nan;101769.69;5009562;28;20684;-65
2023/04/03 10:13:59;;;;;;;1.63;1.50;;;24.10;42.50;;;24.50;nan;101759.19;4999889;28;20703;-66
2023/04/03 10:16:34;;;;;;;1.10;1.10;;;25.00;42.80;;;25.65;nan;101753.78;5010804;28;20694;-65
2023/04/03 10:19:33;;;;;;;1.37;1.20;;;26.50;41.30;;;24.11;nan;101766.34;4996311;28;20649;-65
2023/04/03 10:22:47;;;;;;;2.03;0.93;;;26.30;40.30;;;21.03;nan;101758.22;4989250;28;20999;-65
2023/04/03 10:25:36;;;;;;;1.00;1.00;;;22.90;41.80;;;17.45;nan;101749.50;4957719;28;20670;-67
2023/04/03 10:28:24;;;;;;;3.03;1.80;;;18.90;47.10;;;16.05;nan;101745.06;5003122;28;21042;-65
2023/04/03 10:31:14;;;;;;;1.60;0.90;;;16.90;50.00;;;15.59;nan;101754.81;4990811;28;20607;-65
2023/04/03 10:33:59;;;;;;;1.40;1.23;;;16.10;51.50;;;15.63;nan;101756.25;4990460;28;20634;-65
2023/04/03 10:36:56;;;;;;;1.20;1.20;;;15.90;51.50;;;15.08;nan;101741.88;4989271;28;20670;-63
2023/04/03 10:40:03;;;;;;;3.33;1.30;;;15.30;52.20;;;14.76;nan;101746.00;4989413;28;20669;-66
2023/04/03 10:42:56;;;;;;;1.30;1.30;;;15.00;53.40;;;14.20;nan;101741.28;4970247;28;20673;-65
2023/04/03 10:45:45;;;;;;;1.53;1.20;;;14.40;53.50;;;13.80;nan;101725.63;4986568;28;21303;-65
2023/04/03 10:49:13;;;;;;;1.27;1.17;;;14.00;53.80;;;13.35;nan;101736.59;5001077;28;20648;-65
2023/04/03 10:51:53;;;;;;;1.13;1.03;;;13.50;53.30;;;13.58;nan;101743.78;4937152;28;20638;-65